createdAt,value
2019-01-05T00:02:01.166Z,9.30
2019-01-05T00:04:50.951Z,8.48
2019-01-05T00:07:23.369Z,7.75
2019-01-05T00:10:10.339Z,8.28
2019-01-05T00:12:42.762Z,8.20
2019-01-05T00:15:29.410Z,8.63
2019-01-05T00:18:03.817Z,7.83
2019-01-05T00:20:53.940Z,7.85
2019-01-05T00:23:23.711Z,7.83
2019-01-05T00:26:11.354Z,7.47
2019-01-05T00:28:43.008Z,7.92
2019-01-05T00:31:17.644Z,7.42
2019-01-05T00:33:53.290Z,6.83
2019-01-05T00:36:41.218Z,7.72
2019-01-05T00:39:29.075Z,7.60
2019-01-05T00:42:14.227Z,7.28
2019-01-05T00:44:52.027Z,7.20
2019-01-05T00:47:39.427Z,7.72
2019-01-05T00:50:14.029Z,7.80
2019-01-05T00:53:01.807Z,6.47
2019-01-05T00:55:33.466Z,8.33
2019-01-05T00:58:10.850Z,7.35
2019-01-05T01:00:54.786Z,6.47
2019-01-05T01:03:35.563Z,6.42
2019-01-05T01:06:08.048Z,6.00
2019-01-05T01:08:46.038Z,6.17
2019-01-05T01:11:33.873Z,6.15
2019-01-05T01:14:21.801Z,6.20
2019-01-05T01:16:59.402Z,5.97
2019-01-05T01:19:40.056Z,5.12
2019-01-05T01:22:17.576Z,5.05
2019-01-05T01:24:49.317Z,5.53
2019-01-05T01:27:34.144Z,6.12
2019-01-05T01:30:09.522Z,5.08
2019-01-05T01:32:47.419Z,5.15
2019-01-05T01:35:21.944Z,4.72
2019-01-05T01:38:33.522Z,4.90
2019-01-05T01:41:25.058Z,4.92
2019-01-05T01:43:56.711Z,5.20
2019-01-05T01:46:44.647Z,4.22
2019-01-05T01:49:14.452Z,5.83
2019-01-05T01:51:49.069Z,5.00
2019-01-05T01:54:22.253Z,4.53
2019-01-05T01:56:59.861Z,4.37
2019-01-05T01:59:59.984Z,4.05
2019-01-05T02:02:48.535Z,4.10
2019-01-05T02:05:31.049Z,3.95
2019-01-05T02:08:02.690Z,4.00
2019-01-05T02:10:43.569Z,3.80
2019-01-05T02:13:27.399Z,3.83
2019-01-05T02:16:19.321Z,4.60
2019-01-05T02:18:55.703Z,3.42
2019-01-05T02:22:08.246Z,3.50
2019-01-05T02:25:05.222Z,3.85
2019-01-05T02:28:12.238Z,4.37
2019-01-05T02:31:03.156Z,3.60
2019-01-05T02:34:00.509Z,3.77
2019-01-05T02:37:00.522Z,3.52
2019-01-05T02:40:12.837Z,2.75
2019-01-05T02:43:24.373Z,2.95
2019-01-05T02:46:31.311Z,3.25
2019-01-05T02:49:40.422Z,2.83
2019-01-05T02:53:08.622Z,2.12
2019-01-05T02:56:43.660Z,2.85
2019-01-05T02:59:34.871Z,2.80
2019-01-05T03:02:35.922Z,2.50
2019-01-05T03:05:33.270Z,2.52
2019-01-05T03:09:00.145Z,2.80
2019-01-05T03:12:02.109Z,2.47
2019-01-05T03:14:53.293Z,2.25
2019-01-05T03:18:20.659Z,2.10
2019-01-05T03:21:48.625Z,2.15
2019-01-05T03:24:59.024Z,2.00
2019-01-05T03:28:24.318Z,2.02
2019-01-05T03:31:47.129Z,2.02
2019-01-05T03:35:12.461Z,1.70
2019-01-05T03:38:29.286Z,1.70
2019-01-05T03:41:42.615Z,1.82
2019-01-05T03:44:43.866Z,1.70
2019-01-05T03:47:34.864Z,1.77
2019-01-05T03:50:58.343Z,1.95
2019-01-05T03:53:56.380Z,2.10
2019-01-05T03:57:06.499Z,2.02
2019-01-05T04:00:18.563Z,1.52
2019-01-05T04:03:34.325Z,1.47
2019-01-05T04:07:12.055Z,1.40
2019-01-05T04:10:51.399Z,1.85
2019-01-05T04:13:55.922Z,1.60
2019-01-05T04:17:10.995Z,1.65
2019-01-05T04:20:15.112Z,1.72
2019-01-05T04:22:51.492Z,1.50
2019-01-05T04:25:52.962Z,1.77
2019-01-05T04:29:14.157Z,1.60
2019-01-05T04:31:59.661Z,1.52
2019-01-05T04:34:47.562Z,1.70
2019-01-05T04:37:59.663Z,1.30
2019-01-05T04:41:27.642Z,1.40
2019-01-05T04:44:47.528Z,1.80
2019-01-05T04:47:35.847Z,1.55
2019-01-05T04:50:29.548Z,1.47
2019-01-05T04:53:51.837Z,1.67
2019-01-05T04:57:34.299Z,1.47
2019-01-05T05:00:16.086Z,1.60
2019-01-05T05:03:24.907Z,1.95
2019-01-05T05:06:31.288Z,1.20
2019-01-05T05:09:32.830Z,1.50
2019-01-05T05:12:27.274Z,1.30
2019-01-05T05:15:34.632Z,1.57
2019-01-05T05:18:22.241Z,1.65
2019-01-05T05:21:32.513Z,2.02
2019-01-05T05:24:53.314Z,1.65
2019-01-05T05:28:03.266Z,1.75
2019-01-05T05:31:13.734Z,1.92
2019-01-05T05:34:24.502Z,1.60
2019-01-05T05:38:07.120Z,1.50
2019-01-05T05:41:30.273Z,1.60
2019-01-05T05:44:30.609Z,1.92
2019-01-05T05:47:21.707Z,1.52
2019-01-05T05:50:22.357Z,1.80
2019-01-05T05:53:53.594Z,1.60
2019-01-05T05:57:17.066Z,1.32
2019-01-05T06:00:24.258Z,1.27
2019-01-05T06:04:05.270Z,1.40
2019-01-05T06:07:22.336Z,1.47
2019-01-05T06:10:26.066Z,1.30
2019-01-05T06:13:33.734Z,1.50
2019-01-05T06:16:18.834Z,1.17
2019-01-05T06:19:27.752Z,1.50
2019-01-05T06:22:43.131Z,1.42
2019-01-05T06:26:03.941Z,1.22
2019-01-05T06:29:29.467Z,1.32
2019-01-05T06:33:11.778Z,1.47
2019-01-05T06:36:28.730Z,1.50
2019-01-05T06:39:36.184Z,1.32
2019-01-05T06:42:54.552Z,1.15
2019-01-05T06:46:02.079Z,1.30
2019-01-05T06:49:20.134Z,1.62
2019-01-05T06:52:04.924Z,1.52
2019-01-05T06:54:59.120Z,1.30
2019-01-05T06:58:11.712Z,1.27
2019-01-05T07:00:54.034Z,1.37
2019-01-05T07:04:30.805Z,1.40
2019-01-05T07:07:38.923Z,1.25
2019-01-05T07:10:46.716Z,1.30
2019-01-05T07:13:55.757Z,1.32
2019-01-05T07:16:54.539Z,1.10
2019-01-05T07:20:27.752Z,1.22
2019-01-05T07:23:55.094Z,1.10
2019-01-05T07:27:17.548Z,1.65
2019-01-05T07:30:43.782Z,1.15
2019-01-05T07:33:40.515Z,1.10
2019-01-05T07:36:57.399Z,1.50
2019-01-05T07:40:28.088Z,1.25
2019-01-05T07:43:23.906Z,1.40
2019-01-05T07:46:31.699Z,1.40
2019-01-05T07:50:08.373Z,1.30
2019-01-05T07:53:08.283Z,1.10
2019-01-05T07:56:28.349Z,1.20
2019-01-05T07:59:44.993Z,1.40
2019-01-05T08:02:38.577Z,1.47
2019-01-05T08:05:27.943Z,1.52
2019-01-05T08:08:42.509Z,1.60
2019-01-05T08:12:05.645Z,1.65
2019-01-05T08:15:07.197Z,1.40
2019-01-05T08:18:29.647Z,1.60
2019-01-05T08:21:26.098Z,1.62
2019-01-05T08:24:38.707Z,1.98
2019-01-05T08:27:54.176Z,1.95
2019-01-05T08:31:16.965Z,1.75
2019-01-05T08:34:29.108Z,2.02
2019-01-05T08:38:01.613Z,1.95
2019-01-05T08:41:17.038Z,1.90
2019-01-05T08:44:42.718Z,2.05
2019-01-05T08:47:44.278Z,2.08
2019-01-05T08:50:58.731Z,1.95
2019-01-05T08:54:27.889Z,2.00
2019-01-05T08:57:35.021Z,2.22
2019-01-05T09:00:38.115Z,2.30
2019-01-05T09:03:48.994Z,2.75
2019-01-05T09:07:03.952Z,2.40
2019-01-05T09:10:01.360Z,2.60
2019-01-05T09:13:25.286Z,2.40
2019-01-05T09:16:34.419Z,3.08
2019-01-05T09:20:10.488Z,2.80
2019-01-05T09:23:19.822Z,2.42
2019-01-05T09:26:35.014Z,2.47
2019-01-05T09:30:02.498Z,2.70
2019-01-05T09:33:03.503Z,2.15
2019-01-05T09:36:09.887Z,2.67
2019-01-05T09:39:13.275Z,3.33
2019-01-05T09:42:33.571Z,2.77
2019-01-05T09:45:43.942Z,2.80
2019-01-05T09:48:40.775Z,2.50
2019-01-05T09:52:10.803Z,3.25
2019-01-05T09:54:58.830Z,2.70
2019-01-05T09:58:43.098Z,2.20
2019-01-05T10:02:08.632Z,2.90
2019-01-05T10:05:08.532Z,2.98
2019-01-05T10:08:21.857Z,2.70
2019-01-05T10:11:37.268Z,3.22
2019-01-05T10:14:47.761Z,3.30
2019-01-05T10:18:09.322Z,3.20
2019-01-05T10:21:09.447Z,3.42
2019-01-05T10:24:12.332Z,3.35
2019-01-05T10:27:33.855Z,3.58
2019-01-05T10:30:29.292Z,3.90
2019-01-05T10:34:02.971Z,3.35
2019-01-05T10:37:09.599Z,3.33
2019-01-05T10:39:52.973Z,3.25
2019-01-05T10:43:09.758Z,3.40
2019-01-05T10:46:22.415Z,3.55
2019-01-05T10:49:29.985Z,3.80
2019-01-05T10:52:38.865Z,3.37
2019-01-05T10:55:53.798Z,3.25
2019-01-05T10:59:19.208Z,4.05
2019-01-05T11:02:45.761Z,3.55
2019-01-05T11:06:01.436Z,3.20
2019-01-05T11:09:15.178Z,4.08
2019-01-05T11:12:13.666Z,3.65
2019-01-05T11:14:56.107Z,3.50
2019-01-05T11:18:22.011Z,4.25
2019-01-05T11:21:38.504Z,3.98
2019-01-05T11:24:53.985Z,3.42
2019-01-05T11:28:10.498Z,3.80
2019-01-05T11:31:15.323Z,3.30
2019-01-05T11:34:24.056Z,3.05
2019-01-05T11:37:27.621Z,4.22
2019-01-05T11:40:35.855Z,3.80
2019-01-05T11:43:45.847Z,4.00
2019-01-05T11:46:43.025Z,4.22
2019-01-05T11:50:21.323Z,3.47
2019-01-05T11:53:53.360Z,4.12
2019-01-05T11:57:19.435Z,5.25
2019-01-05T12:00:47.997Z,4.30
2019-01-05T12:04:02.936Z,5.10
2019-01-05T12:07:32.034Z,5.10
2019-01-05T12:10:38.419Z,5.75
2019-01-05T12:13:48.167Z,5.97
2019-01-05T12:16:55.554Z,6.87
2019-01-05T12:19:34.991Z,9.05
2019-01-05T12:23:02.419Z,9.58
2019-01-05T12:26:25.843Z,9.25
2019-01-05T12:29:51.984Z,8.08
2019-01-05T12:33:16.572Z,8.80
2019-01-05T12:35:59.275Z,8.90
2019-01-05T12:39:14.201Z,7.95
2019-01-05T12:42:35.140Z,8.53
2019-01-05T12:45:51.644Z,8.00
2019-01-05T12:48:54.314Z,9.35
2019-01-05T12:51:51.469Z,9.25
2019-01-05T12:55:05.013Z,9.03
2019-01-05T12:58:41.373Z,8.68
2019-01-05T13:02:20.249Z,8.75
2019-01-05T13:05:55.985Z,8.58
2019-01-05T13:08:48.300Z,8.68
2019-01-05T13:11:55.796Z,8.80
2019-01-05T13:14:52.944Z,9.25
2019-01-05T13:18:05.463Z,8.93
2019-01-05T13:20:56.271Z,8.60
2019-01-05T13:24:14.407Z,9.03
2019-01-05T13:27:17.204Z,9.15
2019-01-05T13:30:11.271Z,8.23
2019-01-05T13:33:34.658Z,9.98
2019-01-05T13:36:50.235Z,9.35
2019-01-05T13:40:11.552Z,9.15
2019-01-05T13:43:26.927Z,9.50
2019-01-05T13:46:33.387Z,9.95
2019-01-05T13:49:46.831Z,8.70
2019-01-05T13:52:59.452Z,8.10
2019-01-05T13:56:00.076Z,8.03
2019-01-05T13:58:29.891Z,8.43
2019-01-05T14:01:17.732Z,7.78
2019-01-05T14:04:01.657Z,7.85
2019-01-05T14:06:39.047Z,7.08
2019-01-05T14:09:12.449Z,7.85
2019-01-05T14:12:00.185Z,6.67
2019-01-05T14:14:36.348Z,7.85
2019-01-05T14:17:20.596Z,6.12
2019-01-05T14:19:56.231Z,6.65
2019-01-05T14:22:33.827Z,7.28
2019-01-05T14:25:23.810Z,6.72
2019-01-05T14:28:11.957Z,6.60
2019-01-05T14:30:46.893Z,6.45
2019-01-05T14:33:33.790Z,6.12
2019-01-05T14:36:14.371Z,5.67
2019-01-05T14:38:46.019Z,5.90
2019-01-05T14:41:20.439Z,5.55
2019-01-05T14:44:08.073Z,5.03
2019-01-05T14:46:39.731Z,5.58
2019-01-05T14:49:11.371Z,5.33
2019-01-05T14:51:47.222Z,5.92
2019-01-05T14:54:24.612Z,5.75
2019-01-05T14:56:56.376Z,5.15
2019-01-05T14:59:34.074Z,5.87
2019-01-05T15:02:16.164Z,5.17
2019-01-05T15:04:50.945Z,5.90
2019-01-05T15:07:22.748Z,5.22
2019-01-05T15:10:09.451Z,4.40
2019-01-05T15:12:39.183Z,4.95
2019-01-05T15:15:27.110Z,4.75
2019-01-05T15:18:14.841Z,4.65
2019-01-05T15:21:02.059Z,4.53
2019-01-05T15:23:40.267Z,4.50
2019-01-05T15:26:14.993Z,5.00
2019-01-05T15:28:49.835Z,4.97
2019-01-05T15:31:19.625Z,4.78
2019-01-05T15:34:07.676Z,4.33
2019-01-05T15:36:51.402Z,4.97
2019-01-05T15:39:39.963Z,5.15
2019-01-05T15:42:09.864Z,4.75
2019-01-05T15:44:48.898Z,5.47
2019-01-05T15:47:24.553Z,5.17
2019-01-05T15:50:12.958Z,6.22
2019-01-05T15:53:00.932Z,5.35
2019-01-05T15:55:43.035Z,6.05
2019-01-05T15:58:32.329Z,5.83
2019-01-05T16:01:20.342Z,6.08
2019-01-05T16:03:57.876Z,6.58
2019-01-05T16:06:44.853Z,5.70
2019-01-05T16:09:32.580Z,5.55
2019-01-05T16:12:04.326Z,6.00
2019-01-05T16:14:34.170Z,5.65
2019-01-05T16:17:05.797Z,5.85
2019-01-05T16:19:55.897Z,6.03
2019-01-05T16:22:39.731Z,5.80
2019-01-05T16:25:27.675Z,5.25
2019-01-05T16:28:02.276Z,5.35
2019-01-05T16:30:52.270Z,5.10
2019-01-05T16:33:30.688Z,5.72
2019-01-05T16:36:08.069Z,5.12
2019-01-05T16:38:51.605Z,6.33
2019-01-05T16:41:29.501Z,5.92
2019-01-05T16:44:19.178Z,5.65
2019-01-05T16:47:00.825Z,6.25
2019-01-05T16:49:38.686Z,6.70
2019-01-05T16:52:10.661Z,6.28
2019-01-05T16:54:51.705Z,6.30
2019-01-05T16:57:26.432Z,6.85
2019-01-05T17:00:01.065Z,6.17
2019-01-05T17:02:49.203Z,6.45
2019-01-05T17:05:37.445Z,6.53
2019-01-05T17:08:09.252Z,6.10
2019-01-05T17:10:57.707Z,7.33
2019-01-05T17:13:29.936Z,6.15
2019-01-05T17:16:17.329Z,6.53
2019-01-05T17:18:52.069Z,5.75
2019-01-05T17:21:26.889Z,6.65
2019-01-05T17:23:59.666Z,6.22
2019-01-05T17:26:32.349Z,6.12
2019-01-05T17:29:20.006Z,6.45
2019-01-05T17:32:07.507Z,6.42
2019-01-05T17:34:42.903Z,6.70
2019-01-05T17:37:14.727Z,6.25
2019-01-05T17:39:44.556Z,6.28
2019-01-05T17:42:22.042Z,6.55
2019-01-05T17:44:53.700Z,6.10
2019-01-05T17:47:37.731Z,6.45
2019-01-05T17:50:22.284Z,7.15
2019-01-05T17:52:56.086Z,6.87
2019-01-05T17:55:30.421Z,7.03
2019-01-05T17:58:02.547Z,6.55
2019-01-05T18:00:50.509Z,6.92
2019-01-05T18:03:22.248Z,6.60
2019-01-05T18:05:57.990Z,6.85
2019-01-05T18:08:48.313Z,6.55
2019-01-05T18:11:30.859Z,6.40
2019-01-05T18:14:16.826Z,6.40
2019-01-05T18:17:06.698Z,6.65
2019-01-05T18:19:41.381Z,6.47
2019-01-05T18:22:29.429Z,6.35
2019-01-05T18:25:18.330Z,7.15
2019-01-05T18:28:06.429Z,6.65
2019-01-05T18:30:39.248Z,6.03
2019-01-05T18:33:29.049Z,7.15
2019-01-05T18:36:06.589Z,6.40
2019-01-05T18:38:47.468Z,6.62
2019-01-05T18:41:35.235Z,8.50
2019-01-05T18:44:19.273Z,9.83
2019-01-05T18:47:07.269Z,10.28
2019-01-05T18:49:45.898Z,10.45
2019-01-05T18:52:34.065Z,10.85
2019-01-05T18:55:21.793Z,10.88
2019-01-05T18:57:56.391Z,10.23
2019-01-05T19:00:44.314Z,10.88
2019-01-05T19:03:34.300Z,11.15
2019-01-05T19:06:06.685Z,10.05
2019-01-05T19:08:45.294Z,10.00
2019-01-05T19:11:17.035Z,10.15
2019-01-05T19:14:00.995Z,11.00
2019-01-05T19:16:45.258Z,10.15
2019-01-05T19:19:16.930Z,10.78
2019-01-05T19:21:56.145Z,9.90
2019-01-05T19:24:45.976Z,10.90
2019-01-05T19:27:23.524Z,9.90
2019-01-05T19:30:01.400Z,9.28
2019-01-05T19:32:36.080Z,10.25
2019-01-05T19:35:23.959Z,9.83
2019-01-05T19:38:05.952Z,8.88
2019-01-05T19:40:40.486Z,9.25
2019-01-05T19:43:27.186Z,8.83
2019-01-05T19:46:14.959Z,7.62
2019-01-05T19:48:58.697Z,7.92
2019-01-05T19:51:39.634Z,8.38
2019-01-05T19:54:18.446Z,7.92
2019-01-05T19:56:53.082Z,7.42
2019-01-05T19:59:40.912Z,7.05
2019-01-05T20:02:18.500Z,6.97
2019-01-05T20:04:51.196Z,6.62
2019-01-05T20:07:38.791Z,7.03
2019-01-05T20:10:14.523Z,6.05
2019-01-05T20:13:04.666Z,6.83
2019-01-05T20:15:52.375Z,7.00
2019-01-05T20:18:40.010Z,6.10
2019-01-05T20:21:23.962Z,6.75
2019-01-05T20:24:01.762Z,5.60
2019-01-05T20:26:49.489Z,5.87
2019-01-05T20:29:33.326Z,6.62
2019-01-05T20:32:13.986Z,5.47
2019-01-05T20:34:46.778Z,5.53
2019-01-05T20:37:24.224Z,5.53
2019-01-05T20:40:12.192Z,4.87
2019-01-05T20:42:51.116Z,6.00
2019-01-05T20:45:25.854Z,5.40
2019-01-05T20:47:55.856Z,5.67
2019-01-05T20:50:39.395Z,5.83
2019-01-05T20:53:13.824Z,5.25
2019-01-05T20:56:01.744Z,5.33
2019-01-05T20:58:49.589Z,5.33
2019-01-05T21:01:19.502Z,4.42
2019-01-05T21:04:01.509Z,5.20
2019-01-05T21:06:33.258Z,4.80
2019-01-05T21:09:22.926Z,4.55
2019-01-05T21:12:06.664Z,4.72
2019-01-05T21:14:54.595Z,5.05
2019-01-05T21:17:42.326Z,4.40
2019-01-05T21:20:30.068Z,4.35
2019-01-05T21:23:01.819Z,4.05
2019-01-05T21:25:40.579Z,4.80
2019-01-05T21:28:28.474Z,4.30
2019-01-05T21:31:16.409Z,4.05
2019-01-05T21:33:58.313Z,4.22
2019-01-05T21:36:29.966Z,4.30
2019-01-05T21:39:17.590Z,3.72
2019-01-05T21:42:01.224Z,4.30
2019-01-05T21:44:49.784Z,4.35
2019-01-05T21:47:37.524Z,4.00
2019-01-05T21:50:09.462Z,4.10
2019-01-05T21:52:47.262Z,3.60
2019-01-05T21:55:35.721Z,4.30
2019-01-05T21:58:17.650Z,3.70
2019-01-05T22:00:47.943Z,4.70
2019-01-05T22:03:35.569Z,4.33
2019-01-05T22:06:10.101Z,4.45
2019-01-05T22:08:58.360Z,4.22
2019-01-05T22:11:30.181Z,4.15
2019-01-05T22:14:04.733Z,3.95
2019-01-05T22:16:39.241Z,3.75
2019-01-05T22:19:16.843Z,4.03
2019-01-05T22:21:54.417Z,3.65
2019-01-05T22:24:26.072Z,4.00
2019-01-05T22:27:03.669Z,4.03
2019-01-05T22:29:42.495Z,3.85
2019-01-05T22:32:17.123Z,3.27
2019-01-05T22:34:51.648Z,3.77
2019-01-05T22:37:39.681Z,3.17
2019-01-05T22:40:16.855Z,3.17
2019-01-05T22:42:53.270Z,3.05
2019-01-05T22:45:32.549Z,3.10
2019-01-05T22:48:20.395Z,3.40
2019-01-05T22:51:08.261Z,2.50
2019-01-05T22:53:46.450Z,2.27
2019-01-05T22:56:18.082Z,3.37
2019-01-05T22:59:05.815Z,2.55
2019-01-05T23:01:53.867Z,2.58
2019-01-05T23:04:25.620Z,2.83
2019-01-05T23:07:01.653Z,2.95
2019-01-05T23:09:51.238Z,2.87
2019-01-05T23:12:26.180Z,2.22
2019-01-05T23:15:00.919Z,2.27
2019-01-05T23:17:44.441Z,2.40
2019-01-05T23:20:34.733Z,2.10
2019-01-05T23:23:21.565Z,2.35
2019-01-05T23:25:55.956Z,2.22
2019-01-05T23:28:27.907Z,2.98
2019-01-05T23:31:13.182Z,1.82
2019-01-05T23:34:00.917Z,2.12
2019-01-05T23:36:36.786Z,2.00
2019-01-05T23:39:07.203Z,1.95
2019-01-05T23:41:55.438Z,2.15
2019-01-05T23:44:43.282Z,1.80
2019-01-05T23:47:23.742Z,2.02
2019-01-05T23:49:55.551Z,1.80
2019-01-05T23:52:30.033Z,2.00
2019-01-05T23:55:18.268Z,1.65
2019-01-05T23:57:56.154Z,1.60
